Tomas Duda

Olheiro-Chefe - Slovan Bratislava
4 Set 2027
Sábado
Processo

Personalidade

Adaptabilidade (16) Ambição (4) Controvérsia (17) Lealdade (14) Pressão (14) Profissionalismo (3) Espírito Esportivo (11) Temperamento (16)

Perfil

Estilo de Treinamento Democrático
Licença Continental B
Determinação 6
Gestão de Pessoas 7
Motivação 7
Disciplina 5
Satisfação no Trabalho
100%
Fadiga
0%
Função Olheiro-Chefe
Salário 64.3K p/s
Contrato 14.03.2030

Desempenho

Comportamento Bom
Eficácia do Treinamento
50%
Desenvolvimento do Jogador
25%
Prevenção de Lesões
65%
Implementação Tática
65%

Eventos Recentes

Participou de uma reunião de recrutamento agora
Recomendou um alvo de transferência agora
Recomendou um alvo de transferência agora
Recomendou um alvo de transferência agora
Recomendou um alvo de transferência agora
Participou de uma reunião de recrutamento agora
Participou de uma reunião de recrutamento 7d atrás
Participou de uma reunião de recrutamento 7d atrás

Monitorando agora

160
Jogador Clube Status Habilidade Confiança Observado Última observação Último voto
Cameron Pring Bristol City Ativo 129 / 126 40% 1 02.06.2027 -
Marin Laušić Spartak Trnava Perdido 101 / 102 66% 1 01.06.2027 -
Gonzalo Plata Rosenborg Ativo 133 / 134 66% 1 01.06.2027 Aprovar
Konstantin Tyukavin Arsenal Ativo 132 / 133 66% 1 01.06.2027 Aprovar
Luka Silagadze Podbrezova Ativo 110 / 110 66% 1 01.06.2027 Aprovar
Lazar Marković Zurich Ativo 133 / 133 66% 1 01.06.2027 Aprovar
Tariq Lamptey Queens Park Rangers Ativo 128 / 151 40% 1 31.05.2027 -
Tommy Conway Middlesbrough Ativo 132 / 112 40% 1 31.05.2027 -
Giorgi Chakvetadze Watford Ativo 134 / 139 40% 1 31.05.2027 -
Alex Robertson Cardiff City Ativo 128 / 132 40% 1 30.05.2027 -
Mathias Jørgensen Blackburn Rovers Ativo 123 / 115 40% 1 30.05.2027 -
Cian Ashford Cardiff City Ativo 127 / 118 40% 1 30.05.2027 -
Leandro Martins Benfica Ativo 86 / 84 40% 6 29.05.2027 -
Sam Curtis Swindon Town Ativo 103 / 101 40% 2 29.05.2027 -
Koki Saito Queens Park Rangers Ativo 133 / 138 40% 1 29.05.2027 -
Rumarn Burrell Queens Park Rangers Ativo 124 / 112 40% 1 29.05.2027 -
Riquelme Thompson-Jones Shrewsbury Town Ativo 102 / 118 40% 1 29.05.2027 -
Jonathan De Irastorza Levante Ativo 129 / 121 40% 2 27.05.2027 -
Jeon Jin-Woo Sheffield Wednesday Ativo 134 / 130 40% 2 27.05.2027 -
Million Manhoef Stoke City Ativo 135 / 127 40% 1 27.05.2027 -
Brooke Norton-Cuffy Hull City Ativo 132 / 151 40% 1 27.05.2027 -
Max Johnston Derby County Ativo 127 / 143 40% 2 26.05.2027 -
Isaac Price West Bromwich Albion Ativo 129 / 140 40% 1 23.05.2027 -
Lucas Jetten Cambuur Ativo 106 / 138 40% 3 22.05.2027 -
Max Bird Birmingham Ativo 125 / 127 40% 1 22.05.2027 -
Zeidane Inoussa Swansea City Ativo 118 / 127 40% 1 22.05.2027 -
Daniel Kyerewaa Reading Ativo 123 / 126 40% 1 22.05.2027 -
Gonçalo Oliveira Benfica Ativo 115 / 106 40% 3 21.05.2027 -
T-Jay Parfitt Cardiff City Ativo 94 / 94 40% 2 21.05.2027 -
Jaydee Canvot Liverpool Ativo 126 / 144 40% 2 21.05.2027 -
Jack Rudoni Coventry City Ativo 130 / 120 40% 1 20.05.2027 -
Dale Taylor Blackpool Ativo 104 / 123 40% 1 20.05.2027 -
Sindre Walle Egeli Nottingham Forest Ativo 127 / 141 40% 2 18.05.2027 -
Martin Baturina Como Ativo 147 / 152 40% 3 17.05.2027 -
Nicolò Radaelli Mantova Ativo 123 / 111 40% 1 17.05.2027 -
Relebohile Mofokeng Orlando Pirates Ativo 113 / 122 40% 1 13.05.2027 -
Ramón Terrats Getafe Ativo 139 / 157 40% 2 12.05.2027 Mais informações
Mattéo Tramoni Pisa Ativo 133 / 142 40% 3 11.05.2027 -
Romano Schmid Frosinone Ativo 142 / 149 40% 1 11.05.2027 Mais informações
Jalen Blesa Rio Ave Ativo 121 / 126 40% 4 10.05.2027 -
John Yeboah Venezia Ativo 122 / 119 40% 2 10.05.2027 -
Amin Sarr Hellas Verona Ativo 128 / 141 40% 3 09.05.2027 -
Samuele Angori Pisa Ativo 137 / 140 40% 1 09.05.2027 -
Ammar Ramadan DAC Dunajska Streda Ativo 133 / 117 40% 16 08.05.2027 Observar
Isaiah Jones Luton Town Ativo 126 / 109 40% 6 08.05.2027 -
Bitello Empoli Ativo 135 / 143 40% 1 08.05.2027 -
Tomáš Suslov Hellas Verona Ativo 129 / 124 40% 3 07.05.2027 -
Mattia Felici Cagliari Ativo 139 / 141 40% 3 06.05.2027 Observar
Helinho Toluca Ativo 140 / 121 40% 6 03.05.2027 -
Camillo Tavernelli Arezzo Ativo 117 / 114 40% 2 03.05.2027 -
Naïs Djouahra Arouca Ativo 129 / 115 40% 4 30.04.2027 -
Konan N'Dri Lecce Ativo 133 / 140 40% 2 29.04.2027 -
Camilo Durán Bloemfontein Celtic Ativo 117 / 102 40% 1 29.04.2027 -
Simone Kosijer Triestina Ativo 97 / 105 40% 2 27.04.2027 -
Mduduzi Shabalala Kaizer Chiefs Ativo 117 / 120 40% 2 27.04.2027 -
Jake Batty Bristol Rovers Ativo 97 / 121 40% 1 27.04.2027 -
Davide Bartesaghi AC Milan Ativo 132 / 147 40% 1 26.04.2027 Mais informações
Eduardo Felicíssimo Sporting CP Perdido 111 / 121 40% 1 26.04.2027 -
Álex Valle Como Ativo 131 / 129 40% 4 19.04.2027 -
Manolo Portanova Reggiana Ativo 121 / 122 40% 2 18.04.2027 -
Isma Ruiz Córdoba Ativo 123 / 122 40% 2 16.04.2027 -
Antoine Bernede Hellas Verona Ativo 135 / 145 40% 1 16.04.2027 -
Filippo Distefano Empoli Ativo 118 / 122 40% 2 15.04.2027 -
Adrián Bernabé Parma Ativo 139 / 148 40% 1 13.04.2027 -
Imrân Louza Watford Ativo 139 / 112 40% 1 13.04.2027 -
Tommaso Cecotti Carpi Ativo 85 / 97 40% 1 10.04.2027 -
Andrey Ivlev Nizhniy Novgorod Ativo 113 / 120 40% 4 09.04.2027 -
Sascha Britschgi Catanzaro Ativo 117 / 130 40% 2 09.04.2027 -
Adam Obert Cagliari Ativo 131 / 140 40% 2 06.04.2027 -
Konta Ismaily Ativo 81 / 109 40% 1 06.04.2027 -
Danilo Veiga Lecce Ativo 123 / 145 40% 1 06.04.2027 -
Aldo Florenzi Cosenza Ativo 118 / 131 40% 2 05.04.2027 -
Jofre Torrents Ajax Ativo 129 / 126 40% 1 04.04.2027 -
Morten Frendrup Genoa Ativo 140 / 148 40% 8 31.03.2027 Observar
Yari Verschaeren Sampdoria Ativo 120 / 121 40% 1 30.03.2027 -
Giuseppe Di Serio Spezia Ativo 116 / 138 40% 1 29.03.2027 -
Norbert Barczak Korona Ativo 89 / 83 40% 1 29.03.2027 -
David Ozoh Derby County Ativo 130 / 123 40% 1 29.03.2027 -
Luca Lipani Frosinone Ativo 113 / 134 40% 1 26.03.2027 Mais informações
Gladson Sulemana Liberty Professionals Ativo 89 / 105 40% 1 26.03.2027 -
Christian Krasnodar Ativo 136 / 139 40% 3 22.03.2027 -
Timotej Hranica MSK Zilina Ativo 96 / 111 40% 4 19.03.2027 -
Lechi Sadulaev Akhmat Grozny Ativo 124 / 119 40% 4 17.03.2027 -
Eymard Bationo DAC Dunajska Streda Ativo 108 / 124 40% 1 16.03.2027 -
Ali Youssef Apollon Ativo 116 / 105 40% 5 13.03.2027 -
Rubens Dinamo Moscow Ativo 126 / 120 40% 6 10.03.2027 -
Francis Amuzu Grêmio Ativo 125 / 143 40% 1 09.03.2027 -
Tunde AVS Ativo 124 / 119 40% 2 08.03.2027 -
Martim Cunha Porto Ativo 92 / 116 40% 1 03.03.2027 -
Riyad Idrissi Torino Ativo 132 / 110 40% 1 03.03.2027 -
Surprise Manthosi Polokwane City Ativo 86 / 84 40% 1 01.03.2027 -
Ignacio Perruzzi Celta Ativo 131 / 121 40% 1 01.03.2027 -
Thiago Silvero Sevilla Ativo 123 / 119 40% 2 28.02.2027 -
Jan Haala Jihlava Ativo 80 / 87 40% 1 28.02.2027 -
Danil Glebov Dinamo Moscow Ativo 129 / 119 40% 3 26.02.2027 -
Peter Kováčik Podbrezova Ativo 114 / 121 40% 2 26.02.2027 -
Doğucan Haspolat Westerlo Ativo 130 / 114 40% 1 25.02.2027 -
Irakly Manelov Baltika Ativo 111 / 109 40% 2 23.02.2027 -
Tadeáš Hájovský AS Trencin Ativo 95 / 116 40% 1 23.02.2027 -
Gia Nadareishvili AS Trencin Ativo 107 / 125 40% 1 23.02.2027 -
Reda Khadra Qarabag Ativo 138 / 122 40% 11 21.02.2027 -
Vyacheslav Grulev Nizhniy Novgorod Ativo 118 / 109 40% 2 18.02.2027 -
Abraham Paintsil Hasaacas Ativo 82 / 98 40% 1 11.02.2027 -
Tiago Mamede Portimonense Ativo 116 / 112 40% 1 11.02.2027 -
Matvey Kislyak Lokomotiv Moscow Ativo 139 / 131 40% 2 07.02.2027 -
Andrei Gabriele Florea MSK Zilina Ativo 89 / 107 40% 1 07.02.2027 -
Arsen Adamov Akhmat Grozny Ativo 122 / 134 40% 4 06.02.2027 -
Karim Coulibaly RC Strasbourg Ativo 113 / 142 40% 1 03.02.2027 -
Tiago Freitas Benfica Ativo 113 / 126 40% 1 18.01.2027 -
Iker Pozo Rodina Ativo 116 / 116 40% 4 31.12.2026 -
Denzel Jubitana Neftchi Ativo 116 / 100 40% 1 31.12.2026 -
Christos Mouzakitis Hull City Ativo 130 / 141 40% 1 22.12.2026 -
Alexandr Chernikov Krasnodar Ativo 138 / 136 40% 7 21.12.2026 Observar
Ronaldo Vásquez Sumgayit Ativo 111 / 132 40% 4 21.12.2026 -
Damián Puebla Orenburg Ativo 127 / 126 40% 4 14.12.2026 -
Ceyhun Nuriyev Gabala Ativo 107 / 130 40% 1 14.12.2026 -
Pedro Bicalho Qarabag Ativo 129 / 132 40% 3 13.12.2026 -
Konstantinos Balogiannis Apollon Ativo 117 / 124 40% 1 12.12.2026 -
Emmanuel Addai Qarabag Ativo 118 / 108 40% 1 11.12.2026 -
Xavier Biscayzacú Sporting CP Ativo 129 / 139 40% 1 03.12.2026 -
Nikita Krivtsov Krasnodar Ativo 130 / 141 40% 1 02.12.2026 -
Caolan Boyd-Munce Wycombe Wanderers Ativo 111 / 100 40% 2 01.12.2026 -
Martins Júnior Zira Ativo 104 / 114 40% 1 01.12.2026 -
Mikhail Ignatov Sochi Ativo 120 / 120 40% 1 30.11.2026 -
Dardan Shabanhaxhaj Rubin Ativo 116 / 105 40% 3 29.11.2026 -
Sergey Pinyaev Lokomotiv Moscow Ativo 127 / 137 40% 1 28.11.2026 -
Ibrahim Cissoko Zwolle Ativo 128 / 112 40% 3 27.11.2026 -
Fabian Rieder FC Augsburg Ativo 138 / 129 40% 1 27.11.2026 -
Matthias Seidl Rapid Wien Ativo 133 / 112 40% 4 26.11.2026 -
Dinis Pinto Moreirense Ativo 137 / 111 40% 1 24.11.2026 -
Ilja Vakhania Krasnodar Ativo 120 / 119 40% 1 23.11.2026 -
Marko Brest Olimpija Ljubljana Ativo 120 / 124 40% 2 20.11.2026 -
Liel Abada Charlotte Football Club Ativo 141 / 139 40% 2 19.11.2026 -
Juan Manuel Boselli Krasnodar Ativo 118 / 128 40% 3 19.11.2026 -
Mauro Rodrigues Botev Plovdiv Ativo 107 / 116 40% 1 16.11.2026 -
Fraser Murray Wigan Athletic Ativo 116 / 111 40% 2 14.11.2026 -
Svit Sešlar NK Celje Ativo 127 / 117 40% 1 14.11.2026 -
Mariano Bracamonte Deportivo Riestra Ativo 115 / 129 40% 2 07.11.2026 -
Emi Rodriguez Leon Ativo 114 / 101 40% 2 03.11.2026 -
Houssem Mrezigue Dinamo Makhachkala Ativo 115 / 106 40% 1 03.11.2026 -
Tio Cipot NK Maribor Ativo 119 / 109 40% 1 02.11.2026 -
Žiga Repas NK Maribor Ativo 118 / 108 40% 2 01.11.2026 -
Olakunle Olusegun Rostov Ativo 124 / 120 40% 1 27.10.2026 -
Petar Stanić Ludogorets Ativo 130 / 128 40% 2 23.10.2026 -
Andrei Cordea CFR Cluj Ativo 124 / 132 40% 1 20.10.2026 -
Maicon Levski Ativo 131 / 118 40% 1 13.10.2026 -
Alexis Steimbach Gimnasia La Plata Ativo 117 / 106 40% 1 12.10.2026 -
Matías Pellegrini Vélez Ativo 110 / 101 40% 1 08.10.2026 -
George Earthy Reading Ativo 113 / 139 40% 1 08.10.2026 -
Alan Salas San Lorenzo Ativo 95 / 86 40% 1 30.08.2026 -
Miloš Jovičić Zabbar St. Patrick Ativo 82 / 100 40% 1 30.08.2026 -
Vakhtang Salia Newcastle United Ativo 93 / 103 40% 1 29.08.2026 -
Lautaro Díaz San Martín Ativo 75 / 75 40% 1 28.08.2026 -
Laureano Paez Colón Ativo 90 / 92 40% 1 28.08.2026 -
Williams Yikat BKMA Ativo 93 / 92 40% 1 27.08.2026 -
Stefan Džodić Almería Ativo 100 / 116 40% 1 19.08.2026 -
Jannik Schuster Brentford Ativo 106 / 98 40% 1 19.08.2026 -
Máté Tuboly DAC Dunajska Streda Ativo 89 / 87 40% 1 18.08.2026 -
Matías Gómez Valencia Ativo 106 / 139 40% 1 18.08.2026 -
Josh Laqeretabua Charlton Athletic Ativo 81 / 101 40% 1 02.08.2026 -